Time;durP1;ratioP1;P1;durP2;ratioP2;P2;SDS_P1;SDS_P2;PMS_P1;PMS_P2;Temp;Humidity;BMP_temperature;BMP_pressure;BME280_temperature;BME280_humidity;BME280_pressure;Samples;Min_cycle;Max_cycle;Signal;HPM_P1;HPM_P2
2022/10/19 00:01:21;;;;;;;18.93;7.73;;;8.70;99.90;;;;;;4977257;28;38567;-81
2022/10/19 00:03:54;;;;;;;15.13;7.17;;;8.70;99.90;;;;;;4961438;28;39020;-81
2022/10/19 00:06:27;;;;;;;17.40;7.05;;;8.70;99.90;;;;;;4984596;28;38855;-81
2022/10/19 00:09:21;;;;;;;;;;;8.70;99.90;;;;;;4985602;28;37417;-82
2022/10/19 00:11:54;;;;;;;15.30;6.90;;;8.60;99.90;;;;;;4987373;28;47463;-82
2022/10/19 00:14:28;;;;;;;15.47;7.30;;;8.60;99.90;;;;;;4973871;28;38009;-80
2022/10/19 00:16:57;;;;;;;16.30;7.47;;;8.50;99.90;;;;;;4987578;28;36679;-82
2022/10/19 00:19:28;;;;;;;12.97;7.77;;;8.50;99.90;;;;;;4996588;28;41116;-82
2022/10/19 00:22:00;;;;;;;14.77;7.27;;;8.50;99.90;;;;;;4989842;28;39258;-82
2022/10/19 00:24:35;;;;;;;15.13;8.47;;;8.50;99.90;;;;;;4977545;28;37551;-82
2022/10/19 00:27:03;;;;;;;15.87;8.23;;;8.40;99.90;;;;;;4997766;28;37465;-82
2022/10/19 00:29:33;;;;;;;18.93;8.40;;;8.50;99.90;;;;;;4998142;28;49233;-82
2022/10/19 00:32:01;;;;;;;20.27;10.20;;;8.50;99.90;;;;;;4983110;28;38948;-82
2022/10/19 00:34:28;;;;;;;17.50;9.13;;;8.50;99.90;;;;;;4997721;28;38991;-81
2022/10/19 00:37:02;;;;;;;24.23;10.57;;;8.50;99.90;;;;;;4978657;28;35647;-81
2022/10/19 00:39:30;;;;;;;20.63;10.30;;;8.50;99.90;;;;;;4993780;28;48101;-81
2022/10/19 00:41:58;;;;;;;18.67;9.80;;;8.50;99.90;;;;;;4989412;28;39444;-82
2022/10/19 00:44:54;;;;;;;18.43;9.67;;;8.40;99.90;;;;;;4983083;28;37938;-82
2022/10/19 00:47:30;;;;;;;28.60;12.10;;;8.40;99.90;;;;;;4994439;28;38797;-83
2022/10/19 00:50:05;;;;;;;24.57;13.33;;;8.40;99.90;;;;;;4981575;28;38941;-82
2022/10/19 00:52:32;;;;;;;21.70;12.03;;;8.50;99.90;;;;;;4964559;28;48795;-82
2022/10/19 00:55:03;;;;;;;24.90;11.30;;;8.50;99.90;;;;;;5004923;28;39856;-81
2022/10/19 00:57:38;;;;;;;19.47;12.17;;;8.50;99.90;;;;;;4968096;28;37934;-82
2022/10/19 01:00:07;;;;;;;20.53;11.43;;;8.50;99.90;;;;;;4983074;28;38371;-81
2022/10/19 01:02:34;;;;;;;17.77;11.33;;;8.50;99.90;;;;;;5385697;23;39307;-82
2022/10/19 01:05:00;;;;;;;21.03;13.00;;;8.50;99.90;;;;;;4973268;28;39752;-81
2022/10/19 01:07:27;;;;;;;27.83;13.77;;;8.50;99.90;;;;;;4981312;28;37287;-80
2022/10/19 01:09:54;;;;;;;25.43;13.00;;;8.50;99.90;;;;;;4979145;28;40122;-81
2022/10/19 01:12:45;;;;;;;31.67;14.93;;;8.50;99.90;;;;;;4967952;28;38246;-81
2022/10/19 01:15:42;;;;;;;32.00;15.27;;;8.70;99.90;;;;;;4965875;28;36755;-80
2022/10/19 01:18:19;;;;;;;33.27;17.57;;;8.80;99.90;;;;;;4981990;28;36807;-80
2022/10/19 01:21:13;;;;;;;25.17;15.53;;;8.80;99.90;;;;;;4958915;28;37806;-80
2022/10/19 01:24:22;;;;;;;30.30;17.03;;;8.80;99.90;;;;;;4962861;28;47047;-80
2022/10/19 01:27:17;;;;;;;38.53;16.80;;;8.90;99.90;;;;;;4960540;28;47253;-81
2022/10/19 01:29:56;;;;;;;33.90;18.33;;;9.00;99.90;;;;;;4989356;28;48760;-80
2022/10/19 01:32:37;;;;;;;28.47;16.13;;;9.00;99.90;;;;;;4968332;28;37651;-80
2022/10/19 01:35:16;;;;;;;35.80;18.17;;;9.10;99.90;;;;;;4969841;28;38902;-80
2022/10/19 01:38:03;;;;;;;28.40;15.87;;;9.20;99.90;;;;;;4972244;28;47414;-81
2022/10/19 01:40:43;;;;;;;30.97;17.30;;;9.20;99.90;;;;;;4969018;28;47603;-81
2022/10/19 01:43:22;;;;;;;27.70;14.17;;;9.20;99.90;;;;;;4985461;28;38428;-80
2022/10/19 01:46:21;;;;;;;20.70;12.83;;;9.20;99.90;;;;;;4973039;28;37578;-81
2022/10/19 01:48:55;;;;;;;30.80;17.87;;;9.20;99.90;;;;;;4970292;28;47417;-81
2022/10/19 01:51:31;;;;;;;26.47;16.83;;;9.20;99.90;;;;;;4971639;28;36119;-81
2022/10/19 01:54:01;;;;;;;32.20;16.40;;;9.20;99.90;;;;;;4975150;28;37816;-80
2022/10/19 01:56:30;;;;;;;31.90;16.43;;;9.10;99.90;;;;;;4977892;28;46617;-81
2022/10/19 01:58:59;;;;;;;33.10;17.57;;;9.10;99.90;;;;;;4990659;28;39764;-81
2022/10/19 02:01:30;;;;;;;25.07;14.80;;;9.10;99.90;;;;;;4974543;28;36939;-80
2022/10/19 02:03:57;;;;;;;26.00;16.00;;;9.10;99.90;;;;;;4974573;28;38888;-80
2022/10/19 02:06:23;;;;;;;30.20;15.00;;;9.10;99.90;;;;;;4991942;28;38685;-81
2022/10/19 02:08:52;;;;;;;24.27;13.60;;;9.10;99.90;;;;;;4978011;28;38597;-80
2022/10/19 02:11:20;;;;;;;25.10;13.50;;;9.10;99.90;;;;;;4973031;28;36499;-80
2022/10/19 02:13:53;;;;;;;34.47;16.33;;;9.10;99.90;;;;;;4974069;28;37102;-81
2022/10/19 02:16:23;;;;;;;;;;;9.10;99.90;;;;;;4987774;28;38862;-80
2022/10/19 02:18:51;;;;;;;26.50;14.07;;;9.00;99.90;;;;;;4977816;28;36954;-79
2022/10/19 02:21:18;;;;;;;29.23;13.73;;;9.00;99.90;;;;;;4976085;28;35099;-80
2022/10/19 02:23:45;;;;;;;20.53;10.93;;;9.10;99.90;;;;;;4971993;28;37856;-80
2022/10/19 02:26:11;;;;;;;27.93;13.10;;;9.00;99.90;;;;;;4969725;28;37823;-80
2022/10/19 02:28:37;;;;;;;24.43;12.93;;;9.00;99.90;;;;;;4971643;28;37374;-80
2022/10/19 02:31:04;;;;;;;27.43;13.77;;;8.90;99.90;;;;;;4990303;28;37780;-80
2022/10/19 02:33:31;;;;;;;23.77;11.53;;;8.90;99.90;;;;;;4990052;28;47729;-81
2022/10/19 02:35:58;;;;;;;23.57;12.40;;;8.80;99.90;;;;;;4975398;28;38790;-80
2022/10/19 02:38:24;;;;;;;25.13;11.40;;;8.80;99.90;;;;;;4974743;28;37671;-80
2022/10/19 02:41:15;;;;;;;27.30;12.30;;;8.70;99.90;;;;;;4971310;28;36487;-80
2022/10/19 02:43:46;;;;;;;18.67;12.70;;;8.70;99.90;;;;;;4993253;28;48790;-80
2022/10/19 02:46:22;;;;;;;21.13;12.50;;;8.60;99.90;;;;;;4974026;28;38302;-80
2022/10/19 02:48:50;;;;;;;24.13;12.77;;;8.60;99.90;;;;;;4972078;28;37054;-80
2022/10/19 02:51:31;;;;;;;16.97;11.50;;;8.50;99.90;;;;;;4972149;28;36529;-80
2022/10/19 02:53:57;;;;;;;21.00;12.13;;;8.40;99.90;;;;;;4971628;28;36458;-81
2022/10/19 02:56:27;;;;;;;23.37;13.57;;;8.40;99.90;;;;;;4991502;28;39546;-80
2022/10/19 02:58:53;;;;;;;20.87;11.33;;;8.40;99.90;;;;;;4976497;28;37558;-80
2022/10/19 03:01:19;;;;;;;25.20;14.13;;;8.50;99.90;;;;;;4977759;28;38638;-81
2022/10/19 03:03:46;;;;;;;25.57;14.67;;;8.50;99.90;;;;;;4978244;28;39250;-81
2022/10/19 03:06:12;;;;;;;26.53;17.10;;;8.50;99.90;;;;;;4979729;28;37997;-81
2022/10/19 03:08:39;;;;;;;17.40;12.53;;;8.50;99.90;;;;;;4978863;28;37529;-81
2022/10/19 03:11:05;;;;;;;29.00;16.17;;;8.40;99.90;;;;;;4966543;28;37521;-80
2022/10/19 03:13:31;;;;;;;23.43;14.97;;;8.40;99.90;;;;;;4976727;28;39772;-80
2022/10/19 03:16:05;;;;;;;21.37;15.07;;;8.40;99.90;;;;;;5000170;28;38318;-81
2022/10/19 03:18:34;;;;;;;21.37;13.77;;;8.40;99.90;;;;;;4978894;28;46614;-80
2022/10/19 03:21:07;;;;;;;21.57;12.97;;;8.30;99.90;;;;;;4997861;28;37830;-80
2022/10/19 03:23:34;;;;;;;15.83;11.07;;;8.30;99.90;;;;;;4993480;28;48398;-80
2022/10/19 03:26:01;;;;;;;20.33;12.47;;;8.30;99.90;;;;;;4978415;28;37616;-81
2022/10/19 03:28:28;;;;;;;20.77;13.20;;;8.40;99.90;;;;;;4978276;28;38726;-80
2022/10/19 03:30:54;;;;;;;27.67;14.97;;;8.40;99.90;;;;;;4978579;28;36669;-80
2022/10/19 03:33:20;;;;;;;23.67;11.17;;;8.40;99.90;;;;;;4979045;28;37818;-80
2022/10/19 03:35:47;;;;;;;19.40;12.03;;;8.40;99.90;;;;;;4982407;28;38869;-81
2022/10/19 03:38:14;;;;;;;14.80;11.03;;;8.40;99.90;;;;;;4996223;28;39071;-80
2022/10/19 03:40:41;;;;;;;18.10;10.73;;;8.50;99.90;;;;;;4997531;28;36043;-80
2022/10/19 03:43:08;;;;;;;16.80;10.73;;;8.40;99.90;;;;;;4983910;28;39179;-80
2022/10/19 03:45:35;;;;;;;22.67;12.47;;;8.40;99.90;;;;;;4982942;28;38605;-80
2022/10/19 03:48:02;;;;;;;20.13;11.40;;;8.40;99.90;;;;;;4966247;28;38592;-81
2022/10/19 03:50:29;;;;;;;18.67;11.83;;;8.40;99.90;;;;;;4991375;28;47519;-81
2022/10/19 03:52:56;;;;;;;22.40;10.63;;;8.40;99.90;;;;;;4982362;28;37547;-81
2022/10/19 03:55:23;;;;;;;15.87;10.27;;;8.50;99.90;;;;;;4976835;28;39117;-81
2022/10/19 03:57:53;;;;;;;16.57;8.87;;;8.50;99.90;;;;;;5001593;28;38715;-82
2022/10/19 04:00:21;;;;;;;15.23;8.83;;;8.50;99.90;;;;;;4978130;28;36629;-81
2022/10/19 04:02:47;;;;;;;22.87;11.20;;;8.40;99.90;;;;;;5000362;28;40117;-81
2022/10/19 04:05:13;;;;;;;15.13;9.07;;;8.40;99.90;;;;;;4984275;28;37834;-81
2022/10/19 04:07:39;;;;;;;21.70;9.63;;;8.50;99.90;;;;;;4979565;28;39026;-81
2022/10/19 04:10:06;;;;;;;14.23;8.87;;;8.50;99.90;;;;;;5003709;28;37801;-80
2022/10/19 04:12:32;;;;;;;16.60;9.57;;;8.50;99.90;;;;;;4984242;28;37533;-81
2022/10/19 04:14:59;;;;;;;13.53;8.40;;;8.50;99.90;;;;;;4999434;28;38925;-81
2022/10/19 04:17:26;;;;;;;18.73;10.10;;;8.50;99.90;;;;;;4978932;28;37565;-81
2022/10/19 04:19:52;;;;;;;14.57;7.47;;;8.50;99.90;;;;;;4985675;28;36579;-81
2022/10/19 04:22:19;;;;;;;14.33;8.27;;;8.40;99.90;;;;;;4980439;28;37993;-81
2022/10/19 04:24:45;;;;;;;19.00;9.60;;;8.50;99.90;;;;;;4996830;28;37890;-81
2022/10/19 04:27:11;;;;;;;16.10;8.70;;;8.50;99.90;;;;;;4982018;28;37852;-81
2022/10/19 04:29:43;;;;;;;12.63;7.97;;;8.50;99.90;;;;;;4979916;28;37999;-81
2022/10/19 04:32:09;;;;;;;13.65;8.70;;;8.40;99.90;;;;;;4979886;28;37992;-80
2022/10/19 04:34:36;;;;;;;11.47;8.50;;;8.40;99.90;;;;;;4979793;28;37331;-80
2022/10/19 04:37:02;;;;;;;16.83;8.77;;;8.40;99.90;;;;;;4971734;28;38100;-81
2022/10/19 04:39:29;;;;;;;15.20;8.33;;;8.40;99.90;;;;;;4976692;28;47016;-81
2022/10/19 04:41:55;;;;;;;13.43;9.50;;;8.40;99.90;;;;;;4999200;28;37983;-80
2022/10/19 04:44:21;;;;;;;13.97;8.17;;;8.40;99.90;;;;;;4979660;28;38109;-81
2022/10/19 04:46:47;;;;;;;18.53;8.00;;;8.40;99.90;;;;;;4971135;28;36951;-80
2022/10/19 04:49:13;;;;;;;19.17;8.73;;;8.50;99.90;;;;;;5002419;28;37320;-82
2022/10/19 04:51:39;;;;;;;20.20;8.87;;;8.40;99.90;;;;;;4997447;28;40026;-80
2022/10/19 04:54:07;;;;;;;10.73;7.13;;;8.40;99.90;;;;;;4985067;28;37968;-81
2022/10/19 04:56:33;;;;;;;16.07;8.33;;;8.40;99.90;;;;;;5006076;28;39334;-81
2022/10/19 04:59:00;;;;;;;11.10;7.70;;;8.40;99.90;;;;;;4993233;28;37169;-80
2022/10/19 05:01:28;;;;;;;12.57;8.13;;;8.40;99.90;;;;;;4992508;28;37955;-81
2022/10/19 05:03:57;;;;;;;14.00;8.70;;;8.40;99.90;;;;;;5005576;28;40180;-79
2022/10/19 05:06:24;;;;;;;13.47;7.47;;;8.30;99.90;;;;;;5011988;28;38162;-80
2022/10/19 05:08:50;;;;;;;10.77;6.27;;;8.30;99.90;;;;;;5013570;28;38181;-80
2022/10/19 05:11:21;;;;;;;10.63;6.93;;;8.30;99.90;;;;;;4979558;28;37438;-81
2022/10/19 05:13:49;;;;;;;9.97;6.97;;;8.20;99.90;;;;;;4996119;28;39218;-82
2022/10/19 05:16:22;;;;;;;14.90;7.97;;;8.20;99.90;;;;;;5016237;28;39750;-80
2022/10/19 05:18:50;;;;;;;;;;;8.20;99.90;;;;;;4994381;28;37665;-82
2022/10/19 05:21:17;;;;;;;10.97;6.50;;;8.20;99.90;;;;;;4996436;28;38499;-82
2022/10/19 05:23:44;;;;;;;13.80;8.40;;;8.20;99.90;;;;;;4996642;28;39580;-82
2022/10/19 05:26:16;;;;;;;16.90;8.83;;;8.10;99.90;;;;;;5018722;28;39023;-81
2022/10/19 05:28:45;;;;;;;17.48;8.82;;;8.10;99.90;;;;;;4985927;28;37721;-81
2022/10/19 05:31:15;;;;;;;10.73;7.67;;;8.10;99.90;;;;;;4979173;28;37932;-80
2022/10/19 05:33:45;;;;;;;10.80;7.23;;;8.10;99.90;;;;;;4996018;28;37602;-82
2022/10/19 05:36:35;;;;;;;13.83;6.77;;;8.10;99.90;;;;;;5002624;28;37389;-82
2022/10/19 05:41:37;;;;;;;10.93;7.77;;;8.20;99.90;;;;;;5806584;23;20228;-83
2022/10/19 05:44:04;;;;;;;13.93;8.10;;;8.20;99.90;;;;;;5001213;28;37971;-82
2022/10/19 05:46:33;;;;;;;14.60;8.03;;;8.20;99.90;;;;;;5285325;23;38626;-84
2022/10/19 05:48:59;;;;;;;14.60;7.93;;;8.20;99.90;;;;;;4986297;28;37094;-80
2022/10/19 05:51:26;;;;;;;15.40;7.83;;;8.10;99.90;;;;;;5034891;23;38085;-81
2022/10/19 05:53:54;;;;;;;13.50;7.87;;;8.20;99.90;;;;;;5012794;28;38256;-80
2022/10/19 05:56:23;;;;;;;17.40;8.23;;;8.20;99.90;;;;;;5013777;28;38199;-81
2022/10/19 05:58:49;;;;;;;8.83;6.20;;;8.20;99.90;;;;;;5014905;28;36159;-81
2022/10/19 06:01:18;;;;;;;15.30;6.97;;;8.20;99.90;;;;;;5020607;28;37680;-81
2022/10/19 06:03:46;;;;;;;18.80;8.30;;;8.20;99.90;;;;;;5021656;28;39534;-81
2022/10/19 06:06:13;;;;;;;12.60;7.57;;;8.30;99.90;;;;;;5032856;28;39032;-82
2022/10/19 06:08:43;;;;;;;16.03;7.00;;;8.30;99.90;;;;;;5032052;28;38745;-80
2022/10/19 06:11:22;;;;;;;12.47;6.90;;;8.30;99.90;;;;;;5018011;28;38615;-82
2022/10/19 06:19:01;;;;;;;17.07;6.50;;;8.30;99.90;;;;;;5207854;23;20052;-82
2022/10/19 06:21:32;;;;;;;13.10;7.00;;;8.30;99.90;;;;;;5001107;28;37553;-83
2022/10/19 06:24:01;;;;;;;13.27;7.33;;;8.30;99.90;;;;;;5004467;28;38925;-81
2022/10/19 06:26:30;;;;;;;14.70;8.07;;;8.30;99.90;;;;;;5001159;28;48553;-82
2022/10/19 06:28:59;;;;;;;16.93;8.27;;;8.30;99.90;;;;;;5020080;28;38600;-82
2022/10/19 06:31:31;;;;;;;21.50;9.07;;;8.30;99.90;;;;;;4999866;28;39042;-82
2022/10/19 06:33:58;;;;;;;17.63;7.93;;;8.30;99.90;;;;;;5000710;28;38774;-82
2022/10/19 06:36:31;;;;;;;20.43;9.57;;;8.30;99.90;;;;;;5005242;28;38985;-83
2022/10/19 06:41:37;;;;;;;12.77;9.00;;;8.40;99.90;;;;;;5935889;23;20022;-82
2022/10/19 06:44:07;;;;;;;20.23;8.97;;;8.40;99.90;;;;;;4995963;28;38846;-83
2022/10/19 06:49:12;;;;;;;13.60;7.93;;;8.40;99.90;;;;;;5430618;23;20054;-82
2022/10/19 06:51:40;;;;;;;19.33;8.10;;;8.50;99.90;;;;;;4985403;28;38287;-82
2022/10/19 07:01:54;;;;;;;18.73;8.83;;;8.60;99.90;;;;;;5664189;23;20093;-81
2022/10/19 07:04:21;;;;;;;27.53;10.83;;;8.60;99.90;;;;;;4973176;28;39254;-81
2022/10/19 07:06:52;;;;;;;15.30;9.27;;;8.70;99.90;;;;;;4995507;28;38633;-82
2022/10/19 07:09:29;;;;;;;12.50;8.47;;;8.80;99.90;;;;;;5014850;28;37324;-81
2022/10/19 07:11:57;;;;;;;20.13;9.13;;;8.80;99.90;;;;;;4987660;28;39011;-82
2022/10/19 07:14:27;;;;;;;18.33;9.33;;;8.90;99.90;;;;;;5777306;23;39038;-83
2022/10/19 07:17:09;;;;;;;14.40;8.27;;;8.90;99.90;;;;;;4996359;28;36856;-82
2022/10/19 07:19:40;;;;;;;15.43;7.85;;;8.90;99.90;;;;;;4958977;28;48262;-82
2022/10/19 07:22:20;;;;;;;19.17;7.43;;;9.00;99.90;;;;;;4977889;28;38622;-83
2022/10/19 07:25:17;;;;;;;18.43;7.53;;;9.00;99.90;;;;;;4995028;28;37705;-82
2022/10/19 07:27:46;;;;;;;18.97;7.30;;;9.10;99.90;;;;;;4980518;28;48859;-82
2022/10/19 07:30:13;;;;;;;12.60;7.37;;;9.10;99.90;;;;;;4995587;28;38088;-82
2022/10/19 07:32:41;;;;;;;18.30;7.17;;;9.20;99.90;;;;;;5016892;28;40167;-82
2022/10/19 07:35:07;;;;;;;14.03;7.73;;;9.20;99.90;;;;;;4991881;28;39378;-81
2022/10/19 07:37:34;;;;;;;17.50;6.53;;;9.20;99.90;;;;;;4997517;28;37421;-81
2022/10/19 07:40:05;;;;;;;14.70;6.63;;;9.30;99.90;;;;;;4994887;28;36304;-82
2022/10/19 07:42:42;;;;;;;19.77;7.13;;;9.30;99.90;;;;;;4997861;28;48058;-83
2022/10/19 07:45:13;;;;;;;11.60;6.23;;;9.40;99.90;;;;;;5353305;23;39212;-82
2022/10/19 07:47:44;;;;;;;13.43;5.87;;;9.50;99.90;;;;;;5012129;28;38699;-81
2022/10/19 07:50:10;;;;;;;13.30;6.30;;;9.60;99.90;;;;;;5030843;28;37845;-80
2022/10/19 07:52:43;;;;;;;12.13;6.10;;;9.60;99.90;;;;;;5017065;28;39226;-82
2022/10/19 07:55:12;;;;;;;18.40;6.20;;;9.70;99.90;;;;;;5007643;28;39091;-81
2022/10/19 07:57:39;;;;;;;13.90;6.40;;;9.70;99.90;;;;;;5013557;28;38784;-81
2022/10/19 08:00:06;;;;;;;18.23;6.63;;;9.80;99.90;;;;;;5008806;28;37827;-81
2022/10/19 08:02:36;;;;;;;10.57;7.00;;;9.90;99.90;;;;;;5015129;28;39055;-83
2022/10/19 08:05:06;;;;;;;12.03;6.57;;;9.90;99.90;;;;;;5019271;28;39268;-82
2022/10/19 08:07:53;;;;;;;15.13;6.27;;;10.00;99.90;;;;;;5014656;28;48417;-82
2022/10/19 08:10:19;;;;;;;14.83;6.60;;;10.10;99.90;;;;;;5015721;28;37586;-82
2022/10/19 08:13:25;;;;;;;16.03;6.47;;;10.10;99.90;;;;;;5019574;28;38929;-81
2022/10/19 08:15:55;;;;;;;13.87;6.40;;;10.20;99.90;;;;;;5016730;28;48133;-82
2022/10/19 08:18:23;;;;;;;16.83;6.73;;;10.30;99.90;;;;;;5009234;28;40348;-82
2022/10/19 08:21:02;;;;;;;10.87;6.00;;;10.40;99.90;;;;;;5010639;28;36836;-82
2022/10/19 08:23:35;;;;;;;14.40;6.37;;;10.40;99.90;;;;;;5001175;28;39223;-82
2022/10/19 08:26:08;;;;;;;15.43;6.33;;;10.50;99.90;;;;;;5017358;28;39263;-83
2022/10/19 08:29:21;;;;;;;13.67;6.33;;;10.60;99.90;;;;;;4987023;28;48684;-82
2022/10/19 08:31:51;;;;;;;13.90;5.53;;;10.60;99.90;;;;;;5004180;28;48815;-83
2022/10/19 08:34:19;;;;;;;17.07;6.27;;;10.70;99.90;;;;;;5013269;28;38782;-83
2022/10/19 08:36:55;;;;;;;14.83;5.67;;;10.90;99.90;;;;;;5015742;28;38300;-84
2022/10/19 08:39:42;;;;;;;11.90;5.23;;;10.80;99.90;;;;;;5008620;28;38702;-84
2022/10/19 08:42:40;;;;;;;9.40;5.83;;;11.00;99.90;;;;;;5012865;28;36809;-83
2022/10/19 08:45:43;;;;;;;14.13;4.85;;;11.10;99.90;;;;;;5666874;23;39258;-79
2022/10/19 08:48:36;;;;;;;11.23;4.82;;;11.10;99.90;;;;;;5024893;28;39510;-82
2022/10/19 08:51:08;;;;;;;12.47;5.00;;;11.20;99.90;;;;;;5021487;28;38467;-82
2022/10/19 08:59:41;;;;;;;11.73;4.90;;;11.40;99.90;;;;;;6059438;23;20026;-81
2022/10/19 09:03:00;;;;;;;15.82;4.38;;;11.40;99.90;;;;;;4993431;28;36833;-82
2022/10/19 09:08:00;;;;;;;11.55;4.03;;;11.60;99.90;;;;;;5694306;23;20071;-82
2022/10/19 09:10:39;;;;;;;9.85;4.00;;;11.60;99.90;;;;;;5016490;28;37562;-82
2022/10/19 09:16:16;;;;;;;10.13;4.45;;;11.80;99.90;;;;;;6082621;23;20022;-80
2022/10/19 09:18:55;;;;;;;8.55;3.60;;;11.90;99.90;;;;;;5005406;28;37224;-82
2022/10/19 09:21:47;;;;;;;11.73;4.32;;;12.00;99.90;;;;;;5012986;28;37292;-82
2022/10/19 09:24:52;;;;;;;8.75;3.45;;;12.00;99.90;;;;;;5018626;28;37917;-81
2022/10/19 09:27:22;;;;;;;10.77;3.95;;;12.10;99.90;;;;;;5016194;28;36870;-80
2022/10/19 09:30:26;;;;;;;8.07;3.85;;;12.20;99.90;;;;;;5032818;28;38453;-81
2022/10/19 09:33:37;;;;;;;11.88;3.75;;;12.20;99.90;;;;;;4919197;29;48449;-81
2022/10/19 09:36:06;;;;;;;8.65;3.42;;;12.30;99.90;;;;;;4918505;29;47885;-82
2022/10/19 09:38:32;;;;;;;9.48;4.00;;;12.30;99.90;;;;;;5788459;23;47965;-80
2022/10/19 09:41:27;;;;;;;8.88;3.50;;;12.40;99.90;;;;;;5012565;28;36913;-80
2022/10/19 09:43:54;;;;;;;13.40;3.40;;;12.50;99.90;;;;;;4998908;28;48258;-80
2022/10/19 09:50:07;;;;;;;8.68;3.55;;;12.70;99.90;;;;;;5035037;28;50747;-82
2022/10/19 09:52:35;;;;;;;12.25;3.75;;;12.70;99.90;;;;;;5017206;28;48367;-82
2022/10/19 09:55:29;;;;;;;12.75;3.33;;;12.80;99.90;;;;;;5016736;28;39082;-81
2022/10/19 09:58:02;;;;;;;10.27;3.75;;;12.80;99.90;;;;;;5026830;28;50236;-80
2022/10/19 10:00:37;;;;;;;10.27;3.65;;;12.90;99.90;;;;;;4997553;28;47402;-80
2022/10/19 10:03:05;;;;;;;7.35;3.42;;;12.90;99.90;;;;;;5008326;28;38004;-81
2022/10/19 10:05:37;;;;;;;11.20;3.97;;;12.90;99.90;;;;;;5017973;28;39419;-81
2022/10/19 10:08:25;;;;;;;12.77;4.03;;;13.00;99.90;;;;;;5025661;28;39106;-81
2022/10/19 10:11:44;;;;;;;8.25;3.05;;;13.20;99.90;;;;;;5014937;28;37340;-81
2022/10/19 10:14:29;;;;;;;9.75;2.90;;;13.20;99.90;;;;;;4968420;28;47462;-81
2022/10/19 10:17:12;;;;;;;8.00;2.72;;;13.20;99.90;;;;;;5012279;28;38039;-80
2022/10/19 10:19:51;;;;;;;11.05;3.28;;;13.20;99.90;;;;;;5023326;28;49001;-81
2022/10/19 10:22:30;;;;;;;9.40;3.00;;;13.20;99.90;;;;;;5008853;28;36637;-81
2022/10/19 10:24:57;;;;;;;12.30;3.10;;;13.30;99.90;;;;;;5020377;28;37720;-80
2022/10/19 10:27:35;;;;;;;8.98;3.00;;;13.30;99.90;;;;;;5018209;28;38303;-82
2022/10/19 10:30:09;;;;;;;10.82;2.40;;;13.50;99.90;;;;;;5007387;28;37591;-81
2022/10/19 10:32:48;;;;;;;8.23;2.72;;;13.50;99.90;;;;;;4999212;28;48182;-81
2022/10/19 10:35:19;;;;;;;3.63;2.13;;;13.60;99.90;;;;;;5006088;28;37473;-81
2022/10/19 10:37:46;;;;;;;7.13;2.13;;;13.60;99.90;;;;;;4996688;28;38255;-81
2022/10/19 10:40:37;;;;;;;9.40;2.70;;;13.70;99.90;;;;;;5009220;28;36677;-80
2022/10/19 10:43:07;;;;;;;5.07;1.55;;;13.80;99.90;;;;;;5003459;28;37624;-80
2022/10/19 10:45:44;;;;;;;10.52;2.22;;;13.80;99.90;;;;;;5008420;28;38847;-81
2022/10/19 10:48:28;;;;;;;8.75;1.83;;;13.90;99.90;;;;;;4978003;28;36477;-81
2022/10/19 10:50:59;;;;;;;16.40;2.17;;;14.20;99.90;;;;;;4991640;28;37497;-81
2022/10/19 10:53:44;;;;;;;6.05;1.60;;;14.30;99.90;;;;;;4990875;28;36341;-81
2022/10/19 10:56:29;;;;;;;7.25;1.52;;;14.40;99.90;;;;;;5022614;28;40081;-81
2022/10/19 10:59:03;;;;;;;7.88;1.75;;;14.40;99.90;;;;;;5024856;28;39182;-81
2022/10/19 11:01:40;;;;;;;8.00;1.63;;;14.60;99.90;;;;;;5020721;28;38535;-81
2022/10/19 11:04:15;;;;;;;9.90;2.10;;;14.60;99.90;;;;;;5027662;28;36680;-81
2022/10/19 11:07:02;;;;;;;7.20;1.35;;;14.50;99.90;;;;;;5002769;28;39013;-81
2022/10/19 11:09:45;;;;;;;5.28;1.55;;;14.50;99.90;;;;;;5020818;28;48756;-81
2022/10/19 11:12:18;;;;;;;6.50;1.38;;;14.40;99.90;;;;;;5015734;28;38773;-82
2022/10/19 11:18:27;;;;;;;8.13;2.00;;;14.70;99.90;;;;;;5029800;28;49982;-82
2022/10/19 11:21:32;;;;;;;2.78;1.75;;;14.80;99.90;;;;;;5024166;28;39445;-82
2022/10/19 11:24:34;;;;;;;8.82;1.95;;;14.80;99.90;;;;;;5001925;28;47991;-82
2022/10/19 11:27:37;;;;;;;8.57;1.95;;;15.10;99.90;;;;;;5010863;28;48563;-82
2022/10/19 12:35:07;;;;;;;4.95;1.80;;;16.10;99.90;;;;;;5912955;23;20042;-81
2022/10/19 13:16:34;;;;;;;7.18;1.90;;;16.60;99.90;;;;;;5264620;23;20041;-79
2022/10/19 13:31:48;;;;;;;;;;;16.20;99.90;;;;;;5505934;23;20055;-79
2022/10/19 13:55:20;;;;;;;3.28;1.15;;;16.10;99.90;;;;;;4867401;26;20034;-81
2022/10/19 14:01:31;;;;;;;5.03;1.00;;;16.10;99.90;;;;;;5551852;23;20033;-82
2022/10/19 14:23:38;;;;;;;5.00;1.67;;;16.00;99.90;;;;;;5750876;23;20034;-80
2022/10/19 14:26:19;;;;;;;4.90;1.45;;;15.90;99.90;;;;;;5018306;28;40364;-80
2022/10/19 14:28:52;;;;;;;7.35;1.42;;;16.00;99.90;;;;;;5025985;28;47522;-80
2022/10/19 14:42:58;;;;;;;5.32;1.50;;;15.70;99.90;;;;;;5735156;23;20054;-80
2022/10/19 14:45:32;;;;;;;8.73;1.55;;;15.70;99.90;;;;;;4969649;28;38937;-80
2022/10/19 14:48:12;;;;;;;6.40;1.80;;;15.80;99.90;;;;;;4990615;28;38082;-79
2022/10/19 14:50:49;;;;;;;6.28;1.45;;;15.80;99.90;;;;;;4968520;28;49594;-81
2022/10/19 14:53:47;;;;;;;6.20;1.50;;;15.60;99.90;;;;;;4964071;28;38028;-80
2022/10/19 14:56:52;;;;;;;9.73;2.63;;;15.50;99.90;;;;;;4988025;28;38786;-80
2022/10/19 14:59:35;;;;;;;7.65;2.17;;;15.30;99.90;;;;;;4944758;28;38344;-80
2022/10/19 15:02:16;;;;;;;8.63;2.17;;;15.30;99.90;;;;;;4971649;28;36106;-81
2022/10/19 15:04:46;;;;;;;6.97;1.77;;;15.20;99.90;;;;;;4968221;28;48965;-81
2022/10/19 15:07:36;;;;;;;5.05;1.60;;;15.20;99.90;;;;;;4970567;28;38767;-79
2022/10/19 15:10:07;;;;;;;4.10;1.52;;;15.10;99.90;;;;;;4993732;28;37646;-78
2022/10/19 15:12:39;;;;;;;5.82;1.77;;;15.10;99.90;;;;;;4981994;28;46654;-78
2022/10/19 15:15:13;;;;;;;6.15;2.20;;;15.00;99.90;;;;;;4969281;28;37473;-79
2022/10/19 15:18:02;;;;;;;7.18;2.00;;;15.00;99.90;;;;;;4967977;28;38529;-78
2022/10/19 15:20:33;;;;;;;5.05;1.92;;;14.90;99.90;;;;;;4997955;28;46395;-80
2022/10/19 15:23:01;;;;;;;4.63;2.10;;;14.80;99.90;;;;;;4970052;28;36072;-79
2022/10/19 15:25:35;;;;;;;9.93;2.33;;;14.80;99.90;;;;;;4977276;28;35944;-79
2022/10/19 15:28:36;;;;;;;7.05;2.30;;;14.70;99.90;;;;;;4979258;28;38043;-79
2022/10/19 15:31:16;;;;;;;5.60;2.65;;;14.60;99.90;;;;;;4980331;28;48923;-78
2022/10/19 15:33:46;;;;;;;5.47;2.42;;;14.50;99.90;;;;;;4958920;28;47254;-78
2022/10/19 15:36:16;;;;;;;10.73;2.80;;;14.40;99.90;;;;;;4960387;28;37704;-78
2022/10/19 15:38:48;;;;;;;3.72;2.40;;;14.30;99.90;;;;;;4959914;28;38159;-77
2022/10/19 15:41:24;;;;;;;9.25;3.25;;;14.30;99.90;;;;;;4964420;28;37419;-78
2022/10/19 15:43:59;;;;;;;8.75;3.13;;;14.20;99.90;;;;;;4958497;28;37631;-77
2022/10/19 15:46:33;;;;;;;8.52;3.35;;;14.20;99.90;;;;;;4968515;28;39463;-78
2022/10/19 15:49:14;;;;;;;4.22;2.75;;;14.20;99.90;;;;;;4966047;28;38615;-77
2022/10/19 15:51:45;;;;;;;7.50;3.00;;;14.10;99.90;;;;;;4956076;28;47160;-77
2022/10/19 15:54:15;;;;;;;11.88;3.90;;;14.10;99.90;;;;;;4964423;28;37328;-77
2022/10/19 15:56:44;;;;;;;13.43;5.18;;;14.10;99.90;;;;;;4953341;28;39533;-77
2022/10/19 15:59:16;;;;;;;11.55;6.40;;;14.00;99.90;;;;;;4967401;28;37800;-77
2022/10/19 16:01:46;;;;;;;10.95;5.57;;;13.90;99.90;;;;;;4971629;28;39554;-77
2022/10/19 16:04:14;;;;;;;9.63;3.97;;;13.90;99.90;;;;;;4970899;28;37509;-77
2022/10/19 16:06:43;;;;;;;9.85;3.67;;;13.90;99.90;;;;;;4969073;28;40234;-77
2022/10/19 16:09:19;;;;;;;8.40;3.85;;;13.90;99.90;;;;;;4953453;28;38636;-77
2022/10/19 16:11:46;;;;;;;6.30;3.47;;;13.80;99.90;;;;;;4982805;28;38559;-77
2022/10/19 16:14:13;;;;;;;8.50;4.03;;;13.70;99.90;;;;;;4989070;28;37217;-77
2022/10/19 16:16:40;;;;;;;7.10;3.63;;;13.70;99.90;;;;;;4972104;28;38468;-77
2022/10/19 16:19:09;;;;;;;6.70;3.67;;;13.70;99.90;;;;;;4969900;28;37679;-77
2022/10/19 16:21:36;;;;;;;6.40;3.65;;;13.70;99.90;;;;;;4983472;28;38023;-77
2022/10/19 16:24:02;;;;;;;6.55;3.08;;;13.60;99.90;;;;;;5002225;28;36575;-79
2022/10/19 16:26:30;;;;;;;7.18;3.75;;;13.60;99.90;;;;;;5005757;28;37578;-76
2022/10/19 16:28:57;;;;;;;9.07;3.13;;;13.50;99.90;;;;;;4970020;28;37933;-77
2022/10/19 16:31:24;;;;;;;6.72;3.33;;;13.40;99.90;;;;;;4969878;28;38577;-76
2022/10/19 16:33:50;;;;;;;7.95;3.58;;;13.40;99.90;;;;;;4967125;28;36318;-77
2022/10/19 16:36:19;;;;;;;6.93;3.58;;;13.40;99.90;;;;;;4956642;28;37519;-77
2022/10/19 16:38:46;;;;;;;7.97;3.30;;;13.30;99.90;;;;;;4959635;28;38851;-76
2022/10/19 16:41:12;;;;;;;10.63;3.53;;;13.30;99.90;;;;;;4965766;28;38462;-76
2022/10/19 16:43:38;;;;;;;8.30;3.20;;;13.30;99.90;;;;;;4966039;28;37428;-80
2022/10/19 16:46:05;;;;;;;5.53;3.08;;;13.20;99.90;;;;;;4986261;28;37715;-80
2022/10/19 16:48:33;;;;;;;7.40;3.83;;;13.20;99.90;;;;;;4980572;28;40219;-80